createdAt,value
2023-05-08T00:02:38.772Z,1017
2023-05-08T00:18:13.187Z,1017
2023-05-08T00:33:47.202Z,1017.1
2023-05-08T00:49:21.169Z,1017.2
2023-05-08T01:04:55.162Z,1017.1
2023-05-08T01:20:29.124Z,1017.2
2023-05-08T01:36:03.125Z,1017.2
2023-05-08T01:51:37.126Z,1017.3
2023-05-08T02:07:11.129Z,1017.5
2023-05-08T02:22:45.192Z,1017.5
2023-05-08T02:38:19.270Z,1017.5
2023-05-08T02:53:53.431Z,1017.6
2023-05-08T03:09:27.386Z,1017.7
2023-05-08T03:25:01.350Z,1017.7
2023-05-08T03:40:35.461Z,1017.7
2023-05-08T03:56:09.412Z,1017.6
2023-05-08T04:11:43.530Z,1017.7
2023-05-08T04:27:17.691Z,1017.8
2023-05-08T04:42:51.929Z,1017.9
2023-05-08T04:58:26.073Z,1017.9
2023-05-08T05:14:00.325Z,1017.9
2023-05-08T05:29:34.316Z,1018
2023-05-08T05:45:08.409Z,1017.9
2023-05-08T06:00:42.440Z,1017.8
2023-05-08T06:16:16.563Z,1017.8
2023-05-08T06:31:50.872Z,1017.8
2023-05-08T06:47:25.391Z,1017.7
2023-05-08T07:02:59.779Z,1017.5
2023-05-08T07:18:34.055Z,1017.5
2023-05-08T07:34:08.312Z,1017.4
2023-05-08T07:49:42.343Z,1017.4
2023-05-08T08:05:16.646Z,1017.3
2023-05-08T08:20:51.118Z,1017.2
2023-05-08T08:36:25.673Z,1017.1
2023-05-08T08:52:00.755Z,1017.1
2023-05-08T09:07:35.277Z,1017
2023-05-08T09:23:10.076Z,1017
2023-05-08T09:38:44.774Z,1016.8
2023-05-08T09:54:19.494Z,1016.8
2023-05-08T10:09:54.132Z,1016.8
2023-05-08T10:25:28.920Z,1016.8
2023-05-08T10:41:04.167Z,1016.7
2023-05-08T10:56:38.766Z,1016.6
2023-05-08T11:12:12.940Z,1016.5
2023-05-08T11:27:47.359Z,1016.5
2023-05-08T11:43:21.521Z,1016.5
2023-05-08T11:58:55.724Z,1016.3
2023-05-08T12:14:29.951Z,1016.3
2023-05-08T12:30:04.132Z,1016.2
2023-05-08T12:45:38.306Z,1016.1
2023-05-08T13:01:13.601Z,1015.9
2023-05-08T13:16:48.456Z,1015.8
2023-05-08T13:32:23.230Z,1015.6
2023-05-08T13:47:58.314Z,1015.4
2023-05-08T14:03:32.943Z,1015.1
2023-05-08T14:19:08.612Z,1015.1
2023-05-08T14:34:43.334Z,1015.1
2023-05-08T14:50:17.818Z,1015.1
2023-05-08T15:05:52.514Z,1015.1
2023-05-08T15:21:27.178Z,1015.1
2023-05-08T15:37:01.919Z,1015
2023-05-08T15:52:36.607Z,1015
2023-05-08T16:08:11.294Z,1014.9
2023-05-08T16:23:46.107Z,1014.8
2023-05-08T16:39:20.808Z,1014.7
2023-05-08T16:54:55.521Z,1014.7
2023-05-08T17:10:30.179Z,1014.7
2023-05-08T17:26:04.879Z,1014.7
2023-05-08T17:41:39.511Z,1014.7
2023-05-08T17:57:14.195Z,1014.8
2023-05-08T18:12:48.843Z,1014.9
2023-05-08T18:28:23.691Z,1015.1
2023-05-08T18:43:58.273Z,1015.2
2023-05-08T18:59:32.950Z,1015.3
2023-05-08T19:15:07.593Z,1015.5
2023-05-08T19:30:42.297Z,1015.5
2023-05-08T19:46:16.917Z,1015.7
2023-05-08T20:01:51.668Z,1015.8
2023-05-08T20:17:26.388Z,1015.9
2023-05-08T20:33:01.497Z,1016
2023-05-08T20:48:36.003Z,1016
2023-05-08T21:04:10.624Z,1016
2023-05-08T21:19:45.444Z,1015.9
2023-05-08T21:35:20.990Z,1015.8
2023-05-08T21:50:55.599Z,1015.7
2023-05-08T22:06:30.185Z,1015.7
2023-05-08T22:22:04.753Z,1015.6
2023-05-08T22:37:39.296Z,1015.8
2023-05-08T22:53:13.872Z,1015.7
2023-05-08T23:08:48.432Z,1015.6
2023-05-08T23:24:22.994Z,1015.5
2023-05-08T23:39:57.577Z,1015.3
2023-05-08T23:55:32.214Z,1015.2
